createdAt,value
2023-04-10T00:02:06.813Z,102027.69
2023-04-10T00:04:36.162Z,102023.28
2023-04-10T00:07:05.792Z,102019.69
2023-04-10T00:09:34.984Z,102025.84
2023-04-10T00:12:04.380Z,102019.69
2023-04-10T00:14:33.832Z,102018.84
2023-04-10T00:17:03.162Z,102016.16
2023-04-10T00:19:33.658Z,102013.47
2023-04-10T00:22:03.069Z,102016.09
2023-04-10T00:24:32.319Z,102018.78
2023-04-10T00:27:01.769Z,102016.16
2023-04-10T00:29:31.142Z,102015.25
2023-04-10T00:32:00.542Z,102011.72
2023-04-10T00:34:29.819Z,102009.91
2023-04-10T00:37:00.762Z,102009.91
2023-04-10T00:39:30.053Z,102009.03
2023-04-10T00:41:59.876Z,102012.63
2023-04-10T00:44:29.655Z,102007.28
2023-04-10T00:46:59.116Z,102002.84
2023-04-10T00:49:28.530Z,102005.47
2023-04-10T00:51:59.879Z,102007.16
2023-04-10T00:54:29.673Z,102018.63
2023-04-10T00:56:59.792Z,102015.97
2023-04-10T00:59:29.267Z,102005.41
2023-04-10T01:01:59.252Z,102007.16
2023-04-10T01:04:29.863Z,102006.31
2023-04-10T01:07:10.497Z,102014.16
2023-04-10T01:09:46.607Z,102007.09
2023-04-10T01:12:30.181Z,102005.31
2023-04-10T01:15:08.003Z,102011.47
2023-04-10T01:17:45.038Z,102012.38
2023-04-10T01:20:17.148Z,102007.09
2023-04-10T01:23:07.765Z,102006.25
2023-04-10T01:25:42.589Z,102000.06
2023-04-10T01:28:44.636Z,102000.91
2023-04-10T01:31:21.038Z,102005.22
2023-04-10T01:33:55.381Z,102002.53
2023-04-10T01:36:28.252Z,102009.63
2023-04-10T01:38:59.802Z,102002.59
2023-04-10T01:41:30.732Z,102004.34
2023-04-10T01:44:01.681Z,102000.78
2023-04-10T01:46:33.998Z,102007.75
2023-04-10T01:49:05.363Z,102005.13
2023-04-10T01:51:35.676Z,102004.22
2023-04-10T01:54:10.549Z,102013.88
2023-04-10T01:56:40.040Z,102003.31
2023-04-10T01:59:09.979Z,102004.19
2023-04-10T02:01:40.742Z,102012.97
2023-04-10T02:04:11.171Z,102004.13
2023-04-10T02:06:51.413Z,102006.78
2023-04-10T02:09:24.550Z,102009.44
2023-04-10T02:12:00.171Z,102000.59
2023-04-10T02:14:35.223Z,101999.69
2023-04-10T02:17:06.020Z,101992.69
2023-04-10T02:19:36.930Z,102000.59
2023-04-10T02:22:07.220Z,101994.41
2023-04-10T02:24:37.110Z,101996.09
2023-04-10T02:27:06.362Z,101998.78
2023-04-10T02:29:35.895Z,101996.91
2023-04-10T02:32:07.793Z,102002.16
2023-04-10T02:34:37.279Z,101995.19
2023-04-10T02:37:07.992Z,101998.59
2023-04-10T02:39:37.422Z,101996.00
2023-04-10T02:42:06.849Z,102011.81
2023-04-10T02:44:36.835Z,102011.78
2023-04-10T02:47:08.275Z,102014.38
2023-04-10T02:49:39.825Z,102004.72
2023-04-10T02:52:15.031Z,102010.06
2023-04-10T02:54:44.382Z,102010.91
2023-04-10T02:57:13.635Z,102013.44
2023-04-10T02:59:43.567Z,102012.56
2023-04-10T03:02:14.392Z,101997.69
2023-04-10T03:04:44.230Z,102003.81
2023-04-10T03:07:14.579Z,102006.47
2023-04-10T03:09:44.099Z,102004.69
2023-04-10T03:12:13.229Z,102013.47
2023-04-10T03:14:42.736Z,102008.16
2023-04-10T03:17:12.282Z,101998.47
2023-04-10T03:19:43.503Z,102011.72
2023-04-10T03:22:12.690Z,102000.41
2023-04-10T03:24:43.057Z,102001.19
2023-04-10T03:27:12.256Z,102010.75
2023-04-10T03:29:41.668Z,102014.28
2023-04-10T03:32:11.290Z,102011.63
2023-04-10T03:34:42.068Z,102006.34
2023-04-10T03:37:11.312Z,102009.84
2023-04-10T03:39:40.845Z,102008.09
2023-04-10T03:42:10.082Z,102010.72
2023-04-10T03:44:39.697Z,102011.59
2023-04-10T03:47:10.387Z,102009.78
2023-04-10T03:49:39.889Z,102006.16
2023-04-10T03:52:11.004Z,102007.03
2023-04-10T03:54:41.236Z,102008.78
2023-04-10T03:57:18.725Z,102011.41
2023-04-10T03:59:48.427Z,102016.69
2023-04-10T04:02:17.972Z,102016.63
2023-04-10T04:04:47.547Z,102008.72
2023-04-10T04:07:44.316Z,102023.66
2023-04-10T04:10:35.446Z,102022.72
2023-04-10T04:13:25.302Z,102020.94
2023-04-10T04:16:21.008Z,102025.38
2023-04-10T04:18:58.795Z,102024.47
2023-04-10T04:21:35.328Z,102028.03
2023-04-10T04:24:26.142Z,102027.25
2023-04-10T04:27:01.541Z,102031.78
2023-04-10T04:29:52.850Z,102027.25
2023-04-10T04:32:28.086Z,102030.78
2023-04-10T04:35:19.935Z,102034.28
2023-04-10T04:38:20.227Z,102036.91
2023-04-10T04:41:03.474Z,102044.00
2023-04-10T04:43:53.547Z,102043.19
2023-04-10T04:46:44.650Z,102044.97
2023-04-10T04:49:33.075Z,102038.94
2023-04-10T04:52:37.555Z,102050.41
2023-04-10T04:55:45.777Z,102058.38
2023-04-10T04:58:39.056Z,102050.56
2023-04-10T05:01:15.915Z,102049.78
2023-04-10T05:04:12.257Z,102055.28
2023-04-10T05:07:08.166Z,102051.78
2023-04-10T05:09:56.815Z,102055.50
2023-04-10T05:12:45.714Z,102055.53
2023-04-10T05:15:29.450Z,102056.50
2023-04-10T05:18:28.083Z,102055.72
2023-04-10T05:21:12.304Z,102058.44
2023-04-10T05:24:04.575Z,102065.59
2023-04-10T05:26:45.159Z,102068.41
2023-04-10T05:29:33.569Z,102060.63
2023-04-10T05:32:16.226Z,102067.81
2023-04-10T05:35:06.940Z,102060.84
2023-04-10T05:37:50.179Z,102061.84
2023-04-10T05:40:38.645Z,102059.28
2023-04-10T05:43:30.875Z,102060.25
2023-04-10T05:46:25.851Z,102058.56
2023-04-10T05:49:17.748Z,102066.59
2023-04-10T05:52:05.844Z,102060.50
2023-04-10T05:54:53.548Z,102053.47
2023-04-10T05:57:35.352Z,102063.25
2023-04-10T06:00:04.946Z,102059.75
2023-04-10T06:02:43.807Z,102066.00
2023-04-10T06:05:23.980Z,102068.69
2023-04-10T06:08:01.223Z,102061.66
2023-04-10T06:10:30.685Z,102061.66
2023-04-10T06:13:01.033Z,102063.47
2023-04-10T06:15:31.065Z,102072.34
2023-04-10T06:18:00.760Z,102070.59
2023-04-10T06:20:31.314Z,102076.81
2023-04-10T06:23:01.224Z,102071.50
2023-04-10T06:25:30.817Z,102068.91
2023-04-10T06:28:01.833Z,102078.63
2023-04-10T06:30:31.200Z,102075.97
2023-04-10T06:33:00.989Z,102065.34
2023-04-10T06:35:31.900Z,102075.06
2023-04-10T06:38:01.499Z,102080.38
2023-04-10T06:40:34.136Z,102067.03
2023-04-10T06:43:03.806Z,102076.75
2023-04-10T06:45:40.034Z,102074.13
2023-04-10T06:48:09.643Z,102066.09
2023-04-10T06:50:40.366Z,102065.16
2023-04-10T06:53:09.976Z,102069.53
2023-04-10T06:55:39.454Z,102066.81
2023-04-10T06:58:08.804Z,102056.16
2023-04-10T07:00:38.627Z,102064.06
2023-04-10T07:03:08.196Z,102071.97
2023-04-10T07:05:37.958Z,102070.09
2023-04-10T07:08:10.215Z,102067.38
2023-04-10T07:10:39.502Z,102070.81
2023-04-10T07:13:09.200Z,102073.44
2023-04-10T07:15:38.410Z,102068.03
2023-04-10T07:18:07.869Z,102060.84
2023-04-10T07:20:37.139Z,102066.06
2023-04-10T07:23:06.733Z,102066.84
2023-04-10T07:25:37.537Z,102076.47
2023-04-10T07:28:07.281Z,102063.03
2023-04-10T07:30:37.028Z,102062.03
2023-04-10T07:33:07.000Z,102065.47
2023-04-10T07:35:36.830Z,102064.38
2023-04-10T07:38:06.566Z,102063.41
2023-04-10T07:40:37.465Z,102064.13
2023-04-10T07:43:07.003Z,102068.38
2023-04-10T07:45:36.750Z,102069.13
2023-04-10T07:48:06.912Z,102073.44
2023-04-10T07:50:36.389Z,102065.19
2023-04-10T07:53:08.193Z,102071.28
2023-04-10T07:55:41.859Z,102066.69
2023-04-10T07:58:11.924Z,102070.03
2023-04-10T08:00:41.135Z,102065.44
2023-04-10T08:03:10.684Z,102059.94
2023-04-10T08:05:40.060Z,102056.22
2023-04-10T08:08:09.642Z,102057.81
2023-04-10T08:10:40.408Z,102053.16
2023-04-10T08:13:10.560Z,102047.63
2023-04-10T08:15:39.767Z,102049.22
2023-04-10T08:18:09.179Z,102039.25
2023-04-10T08:20:38.821Z,102048.94
2023-04-10T08:23:19.904Z,102056.75
2023-04-10T08:25:51.902Z,102053.88
2023-04-10T08:28:21.446Z,102053.72
2023-04-10T08:30:50.601Z,102051.88
2023-04-10T08:33:19.946Z,102045.53
2023-04-10T08:35:49.715Z,102050.69
2023-04-10T08:38:21.532Z,102052.31
2023-04-10T08:40:52.372Z,102050.34
2023-04-10T08:43:22.190Z,102047.50
2023-04-10T08:45:52.172Z,102049.19
2023-04-10T08:48:22.898Z,102052.75
2023-04-10T08:50:52.965Z,102048.09
2023-04-10T08:53:25.447Z,102042.69
2023-04-10T08:55:56.740Z,102042.56
2023-04-10T08:58:26.652Z,102042.41
2023-04-10T09:00:56.258Z,102030.63
2023-04-10T09:03:26.856Z,102038.53
2023-04-10T09:05:57.977Z,102044.63
2023-04-10T09:08:27.713Z,102035.47
2023-04-10T09:10:58.230Z,102032.56
2023-04-10T09:13:41.426Z,102036.88
2023-04-10T09:16:11.656Z,102025.09
2023-04-10T09:18:46.699Z,102029.38
2023-04-10T09:21:17.744Z,102023.84
2023-04-10T09:23:48.444Z,102028.03
2023-04-10T09:26:30.005Z,102029.63
2023-04-10T09:29:01.760Z,102022.38
2023-04-10T09:31:32.689Z,102015.13
2023-04-10T09:34:14.147Z,102017.66
2023-04-10T09:36:44.061Z,102016.50
2023-04-10T09:39:14.502Z,102010.19
2023-04-10T09:41:52.857Z,102015.38
2023-04-10T09:44:35.166Z,102007.13
2023-04-10T09:47:19.221Z,102007.00
2023-04-10T09:49:49.511Z,102006.94
2023-04-10T09:52:22.693Z,102011.22
2023-04-10T09:54:52.362Z,102012.06
2023-04-10T09:57:23.306Z,102011.97
2023-04-10T09:59:53.800Z,102008.19
2023-04-10T10:02:24.917Z,101995.34
2023-04-10T10:04:55.075Z,101997.88
2023-04-10T10:07:25.613Z,101997.66
2023-04-10T10:09:55.610Z,101999.22
2023-04-10T10:12:29.896Z,101996.38
2023-04-10T10:15:08.784Z,101990.09
2023-04-10T10:17:44.964Z,101986.38
2023-04-10T10:20:19.088Z,101981.63
2023-04-10T10:22:51.485Z,101978.78
2023-04-10T10:25:22.000Z,101974.31
2023-04-10T10:27:54.906Z,101967.84
2023-04-10T10:30:29.937Z,101956.78
2023-04-10T10:33:01.023Z,101958.50
2023-04-10T10:35:33.192Z,101953.00
2023-04-10T10:38:03.967Z,101954.69
2023-04-10T10:40:39.854Z,101942.97
2023-04-10T10:43:17.589Z,101950.88
2023-04-10T10:45:53.746Z,101940.81
2023-04-10T10:48:23.117Z,101948.72
2023-04-10T10:50:55.045Z,101941.34
2023-04-10T10:53:41.461Z,101942.91
2023-04-10T10:56:37.218Z,101944.47
2023-04-10T10:59:07.797Z,101935.22
2023-04-10T11:01:37.558Z,101932.34
2023-04-10T11:04:21.317Z,101933.25
2023-04-10T11:06:53.438Z,101933.78
2023-04-10T11:09:51.698Z,101929.03
2023-04-10T11:12:23.494Z,101928.06
2023-04-10T11:15:01.566Z,101922.44
2023-04-10T11:17:52.409Z,101920.31
2023-04-10T11:20:27.294Z,101915.75
2023-04-10T11:23:11.993Z,101919.09
2023-04-10T11:25:51.505Z,101907.16
2023-04-10T11:28:40.774Z,101910.50
2023-04-10T11:31:19.752Z,101905.81
2023-04-10T11:33:50.385Z,101897.47
2023-04-10T11:36:19.838Z,101902.47
2023-04-10T11:38:59.782Z,101893.22
2023-04-10T11:41:30.890Z,101901.03
2023-04-10T11:44:01.576Z,101900.94
2023-04-10T11:46:32.728Z,101897.09
2023-04-10T11:49:04.129Z,101883.56
2023-04-10T11:51:34.355Z,101886.13
2023-04-10T11:54:08.641Z,101877.72
2023-04-10T11:56:39.367Z,101878.38
2023-04-10T11:59:11.401Z,101871.97
2023-04-10T12:01:43.223Z,101869.09
2023-04-10T12:04:17.373Z,101869.78
2023-04-10T12:06:48.505Z,101860.72
2023-04-10T12:09:20.020Z,101863.97
2023-04-10T12:11:53.410Z,101857.66
2023-04-10T12:14:24.237Z,101860.34
2023-04-10T12:16:54.988Z,101849.44
2023-04-10T12:19:24.844Z,101857.91
2023-04-10T12:21:54.410Z,101861.22
2023-04-10T12:24:42.757Z,101859.00
2023-04-10T12:27:18.317Z,101854.34
2023-04-10T12:29:48.244Z,101848.72
2023-04-10T12:32:19.207Z,101843.06
2023-04-10T12:34:52.758Z,101842.63
2023-04-10T12:37:22.165Z,101839.72
2023-04-10T12:39:51.939Z,101837.63
2023-04-10T12:42:22.955Z,101835.56
2023-04-10T12:44:54.303Z,101824.56
2023-04-10T12:47:25.397Z,101825.09
2023-04-10T12:50:08.537Z,101816.66
2023-04-10T12:52:38.686Z,101817.28
2023-04-10T12:55:14.336Z,101806.34
2023-04-10T12:57:45.209Z,101804.31
2023-04-10T13:00:18.536Z,101803.00
2023-04-10T13:02:50.143Z,101795.59
2023-04-10T13:05:21.696Z,101796.47
2023-04-10T13:07:52.966Z,101800.69
2023-04-10T13:10:24.526Z,101795.94
2023-04-10T13:12:53.973Z,101789.88
2023-04-10T13:15:24.462Z,101787.19
2023-04-10T13:17:55.459Z,101784.19
2023-04-10T13:20:25.442Z,101786.72
2023-04-10T13:22:54.758Z,101775.75
2023-04-10T13:25:24.111Z,101777.19
2023-04-10T13:27:53.172Z,101776.09
2023-04-10T13:30:22.326Z,101767.97
2023-04-10T13:32:51.538Z,101769.34
2023-04-10T13:35:22.420Z,101765.94
2023-04-10T13:37:54.337Z,101758.66
2023-04-10T13:40:24.175Z,101761.94
2023-04-10T13:42:53.411Z,101760.97
2023-04-10T13:45:23.038Z,101757.75
2023-04-10T13:47:52.411Z,101756.63
2023-04-10T13:50:23.590Z,101764.28
2023-04-10T13:52:53.767Z,101749.13
2023-04-10T13:55:23.560Z,101753.25
2023-04-10T13:57:53.303Z,101746.50
2023-04-10T14:00:23.406Z,101754.00
2023-04-10T14:02:53.145Z,101754.06
2023-04-10T14:05:24.319Z,101747.19
2023-04-10T14:07:56.974Z,101738.06
2023-04-10T14:10:26.571Z,101738.59
2023-04-10T14:12:55.955Z,101739.47
2023-04-10T14:15:25.522Z,101737.19
2023-04-10T14:17:55.048Z,101733.91
2023-04-10T14:20:26.063Z,101736.53
2023-04-10T14:22:55.363Z,101732.78
2023-04-10T14:25:24.803Z,101726.03
2023-04-10T14:27:54.532Z,101728.28
2023-04-10T14:30:26.013Z,101729.00
2023-04-10T14:32:55.331Z,101719.06
2023-04-10T14:35:26.152Z,101721.03
2023-04-10T14:37:55.657Z,101718.88
2023-04-10T14:40:26.452Z,101716.59
2023-04-10T14:42:55.805Z,101711.66
2023-04-10T14:45:25.959Z,101710.22
2023-04-10T14:47:55.885Z,101701.00
2023-04-10T14:50:27.009Z,101695.75
2023-04-10T14:52:56.195Z,101699.06
2023-04-10T14:55:25.848Z,101698.63
2023-04-10T14:57:56.602Z,101692.25
2023-04-10T15:00:29.772Z,101690.63
2023-04-10T15:03:00.419Z,101686.63
2023-04-10T15:05:35.465Z,101692.13
2023-04-10T15:08:11.181Z,101686.28
2023-04-10T15:10:43.928Z,101681.97
2023-04-10T15:13:13.330Z,101679.63
2023-04-10T15:15:43.019Z,101667.53
2023-04-10T15:18:12.705Z,101674.25
2023-04-10T15:20:43.775Z,101671.59
2023-04-10T15:23:13.038Z,101665.88
2023-04-10T15:25:42.970Z,101660.25
2023-04-10T15:28:12.196Z,101662.22
2023-04-10T15:30:48.728Z,101650.84
2023-04-10T15:33:18.476Z,101649.66
2023-04-10T15:35:52.932Z,101646.19
2023-04-10T15:38:26.127Z,101653.94
2023-04-10T15:40:55.701Z,101648.94
2023-04-10T15:43:24.897Z,101647.28
2023-04-10T15:45:54.260Z,101644.69
2023-04-10T15:48:27.739Z,101650.22
2023-04-10T15:50:58.578Z,101643.94
2023-04-10T15:53:30.855Z,101636.59
2023-04-10T15:56:00.668Z,101623.72
2023-04-10T15:58:30.484Z,101628.34
2023-04-10T16:01:00.604Z,101621.09
2023-04-10T16:03:32.257Z,101615.13
2023-04-10T16:06:03.360Z,101620.53
2023-04-10T16:08:32.741Z,101622.28
2023-04-10T16:11:03.450Z,101618.38
2023-04-10T16:13:34.225Z,101610.81
2023-04-10T16:16:08.258Z,101607.94
2023-04-10T16:18:37.945Z,101601.00
2023-04-10T16:21:13.048Z,101600.94
2023-04-10T16:23:46.644Z,101597.19
2023-04-10T16:26:19.622Z,101587.91
2023-04-10T16:28:51.729Z,101590.94
2023-04-10T16:31:21.463Z,101597.03
2023-04-10T16:33:51.747Z,101588.78
2023-04-10T16:36:22.807Z,101584.09
2023-04-10T16:38:52.039Z,101583.91
2023-04-10T16:41:23.000Z,101575.16
2023-04-10T16:43:52.517Z,101574.28
2023-04-10T16:46:23.752Z,101566.63
2023-04-10T16:48:53.591Z,101568.31
2023-04-10T16:51:24.841Z,101564.59
2023-04-10T16:53:55.554Z,101567.59
2023-04-10T16:56:26.431Z,101558.81
2023-04-10T16:59:05.489Z,101572.34
2023-04-10T17:01:39.804Z,101562.94
2023-04-10T17:04:10.068Z,101557.63
2023-04-10T17:06:41.315Z,101554.34
2023-04-10T17:09:10.612Z,101556.16
2023-04-10T17:11:40.357Z,101559.91
2023-04-10T17:14:10.646Z,101560.81
2023-04-10T17:16:40.710Z,101553.56
2023-04-10T17:19:10.725Z,101550.66
2023-04-10T17:21:41.922Z,101553.59
2023-04-10T17:24:11.392Z,101554.81
2023-04-10T17:26:42.894Z,101544.25
2023-04-10T17:29:12.405Z,101541.56
2023-04-10T17:31:42.144Z,101538.78
2023-04-10T17:34:11.510Z,101540.22
2023-04-10T17:36:42.730Z,101537.22
2023-04-10T17:39:12.266Z,101532.44
2023-04-10T17:41:41.728Z,101537.41
2023-04-10T17:44:10.691Z,101536.56
2023-04-10T17:46:40.396Z,101536.16
2023-04-10T17:49:09.479Z,101533.59
2023-04-10T17:51:40.660Z,101530.41
2023-04-10T17:54:11.814Z,101527.03
2023-04-10T17:56:42.482Z,101525.41
2023-04-10T17:59:12.668Z,101525.50
2023-04-10T18:01:42.639Z,101532.53
2023-04-10T18:04:12.140Z,101529.59
2023-04-10T18:06:48.987Z,101533.09
2023-04-10T18:09:20.315Z,101528.50
2023-04-10T18:11:50.952Z,101517.75
2023-04-10T18:14:20.397Z,101524.72
2023-04-10T18:16:50.361Z,101521.78
2023-04-10T18:19:21.298Z,101522.47
2023-04-10T18:21:51.732Z,101514.41
2023-04-10T18:24:22.676Z,101512.88
2023-04-10T18:26:52.477Z,101510.88
2023-04-10T18:29:22.811Z,101507.88
2023-04-10T18:31:52.932Z,101516.47
2023-04-10T18:34:26.954Z,101512.19
2023-04-10T18:36:59.525Z,101516.44
2023-04-10T18:39:31.595Z,101509.00
2023-04-10T18:42:04.028Z,101507.06
2023-04-10T18:44:34.872Z,101511.09
2023-04-10T18:47:06.442Z,101499.72
2023-04-10T18:49:38.421Z,101505.47
2023-04-10T18:52:08.614Z,101499.63
2023-04-10T18:54:41.703Z,101491.22
2023-04-10T18:57:13.932Z,101490.75
2023-04-10T18:59:43.693Z,101484.91
2023-04-10T19:02:15.788Z,101485.34
2023-04-10T19:04:45.575Z,101485.75
2023-04-10T19:07:15.611Z,101484.34
2023-04-10T19:09:50.572Z,101478.41
2023-04-10T19:12:20.310Z,101482.28
2023-04-10T19:14:51.282Z,101479.16
2023-04-10T19:17:25.207Z,101476.75
2023-04-10T19:19:57.523Z,101469.75
2023-04-10T19:22:28.289Z,101479.03
2023-04-10T19:25:04.063Z,101479.31
2023-04-10T19:27:37.579Z,101469.75
2023-04-10T19:30:12.892Z,101467.34
2023-04-10T19:32:46.727Z,101458.72
2023-04-10T19:35:16.843Z,101454.69
2023-04-10T19:37:49.942Z,101455.88
2023-04-10T19:40:22.801Z,101452.56
2023-04-10T19:42:52.771Z,101442.13
2023-04-10T19:45:22.254Z,101447.56
2023-04-10T19:47:56.241Z,101447.03
2023-04-10T19:50:26.293Z,101433.88
2023-04-10T19:52:56.561Z,101429.69
2023-04-10T19:55:29.968Z,101432.47
2023-04-10T19:58:01.070Z,101420.13
2023-04-10T20:00:32.438Z,101424.72
2023-04-10T20:03:08.781Z,101418.69
2023-04-10T20:05:38.341Z,101419.63
2023-04-10T20:08:07.601Z,101421.50
2023-04-10T20:10:38.861Z,101413.81
2023-04-10T20:13:15.419Z,101406.91
2023-04-10T20:15:45.505Z,101412.38
2023-04-10T20:18:16.380Z,101412.56
2023-04-10T20:20:46.739Z,101405.63
2023-04-10T20:23:18.066Z,101398.69
2023-04-10T20:25:49.007Z,101392.66
2023-04-10T20:28:19.157Z,101392.91
2023-04-10T20:30:50.328Z,101397.53
2023-04-10T20:33:28.317Z,101389.75
2023-04-10T20:35:58.383Z,101390.69
2023-04-10T20:38:28.281Z,101387.34
2023-04-10T20:40:58.816Z,101386.69
2023-04-10T20:43:29.027Z,101379.59
2023-04-10T20:46:00.868Z,101383.19
2023-04-10T20:48:31.335Z,101386.91
2023-04-10T20:51:00.810Z,101379.88
2023-04-10T20:53:35.378Z,101381.78
2023-04-10T20:56:09.260Z,101367.69
2023-04-10T20:58:40.556Z,101362.50
2023-04-10T21:01:10.921Z,101359.13
2023-04-10T21:03:40.852Z,101356.47
2023-04-10T21:06:10.758Z,101359.16
2023-04-10T21:08:40.136Z,101359.34
2023-04-10T21:11:10.899Z,101352.34
2023-04-10T21:13:40.423Z,101350.66
2023-04-10T21:16:10.006Z,101348.09
2023-04-10T21:18:39.585Z,101342.84
2023-04-10T21:21:09.503Z,101341.13
2023-04-10T21:23:39.080Z,101346.50
2023-04-10T21:26:10.229Z,101344.81
2023-04-10T21:28:39.688Z,101336.00
2023-04-10T21:31:09.032Z,101334.28
2023-04-10T21:33:38.311Z,101328.97
2023-04-10T21:36:08.117Z,101324.66
2023-04-10T21:38:37.759Z,101323.88
2023-04-10T21:41:07.208Z,101324.00
2023-04-10T21:43:38.821Z,101324.00
2023-04-10T21:46:08.906Z,101320.53
2023-04-10T21:48:38.522Z,101316.16
2023-04-10T21:51:07.916Z,101319.81
2023-04-10T21:53:37.177Z,101305.59
2023-04-10T21:56:06.810Z,101304.78
2023-04-10T21:58:38.173Z,101299.63
2023-04-10T22:01:09.155Z,101295.25
2023-04-10T22:03:39.151Z,101296.16
2023-04-10T22:06:08.943Z,101295.28
2023-04-10T22:08:40.162Z,101286.47
2023-04-10T22:11:09.731Z,101283.88
2023-04-10T22:13:40.287Z,101276.78
2023-04-10T22:16:10.213Z,101281.28
2023-04-10T22:18:39.327Z,101280.41
2023-04-10T22:21:09.242Z,101265.50
2023-04-10T22:23:38.640Z,101266.44
2023-04-10T22:26:08.240Z,101262.03
2023-04-10T22:28:37.419Z,101258.44
2023-04-10T22:31:14.751Z,101248.84
2023-04-10T22:33:44.521Z,101243.59
2023-04-10T22:36:14.234Z,101240.09
2023-04-10T22:38:44.061Z,101229.50
2023-04-10T22:41:13.193Z,101230.41
2023-04-10T22:43:42.561Z,101228.69
2023-04-10T22:46:13.140Z,101219.88
2023-04-10T22:48:43.158Z,101218.19
2023-04-10T22:51:13.500Z,101216.44
2023-04-10T22:53:43.219Z,101213.78
2023-04-10T22:56:12.788Z,101207.69
2023-04-10T22:58:42.431Z,101209.47
2023-04-10T23:01:13.404Z,101201.56
2023-04-10T23:03:43.210Z,101199.75
2023-04-10T23:06:12.382Z,101196.25
2023-04-10T23:08:42.352Z,101186.63
2023-04-10T23:11:11.511Z,101192.00
2023-04-10T23:13:42.699Z,101177.06
2023-04-10T23:16:13.612Z,101180.50
2023-04-10T23:18:43.138Z,101171.66
2023-04-10T23:21:12.724Z,101169.09
2023-04-10T23:23:42.103Z,101160.28
2023-04-10T23:26:12.211Z,101159.41
2023-04-10T23:28:41.972Z,101153.25
2023-04-10T23:31:12.631Z,101150.66
2023-04-10T23:33:42.170Z,101154.19
2023-04-10T23:36:11.703Z,101146.25
2023-04-10T23:38:41.392Z,101138.31
2023-04-10T23:41:10.712Z,101130.38
2023-04-10T23:43:40.233Z,101120.72
2023-04-10T23:46:09.802Z,101124.31
2023-04-10T23:48:40.439Z,101123.38
2023-04-10T23:51:10.366Z,101111.94
2023-04-10T23:53:39.945Z,101114.66
2023-04-10T23:56:09.918Z,101112.94
2023-04-10T23:58:39.463Z,101111.16
